Time;durP1;ratioP1;P1;durP2;ratioP2;P2;SDS_P1;SDS_P2;PMS_P1;PMS_P2;Temp;Humidity;BMP_temperature;BMP_pressure;BME280_temperature;BME280_humidity;BME280_pressure;Samples;Min_cycle;Max_cycle;Signal;HPM_P1;HPM_P2
2023/11/24 00:00:09;;;;;;;27.95;21.67;;;;;;;7.91;81.75;93109.31;513868;28;1922;-69
2023/11/24 00:00:25;;;;;;;29.77;21.63;;;;;;;7.93;81.91;93113.00;512904;28;3803;-69
2023/11/24 00:00:40;;;;;;;29.83;21.67;;;;;;;7.93;81.74;93107.50;513881;28;1891;-69
2023/11/24 00:00:56;;;;;;;30.15;22.08;;;;;;;7.92;82.02;93113.56;512965;28;3627;-69
2023/11/24 00:01:12;;;;;;;31.88;22.67;;;;;;;7.84;81.80;93108.00;513064;28;2469;-69
2023/11/24 00:01:29;;;;;;;29.83;22.38;;;;;;;7.88;82.05;93104.94;513073;28;3707;-69
2023/11/24 00:01:46;;;;;;;29.10;20.55;;;;;;;7.83;82.17;93103.78;512813;28;3392;-69
2023/11/24 00:02:02;;;;;;;30.45;20.80;;;;;;;7.88;82.12;93110.41;513497;28;1906;-69
2023/11/24 00:02:18;;;;;;;29.45;21.30;;;;;;;7.89;81.81;93109.13;511636;28;3405;-69
2023/11/24 00:02:33;;;;;;;30.45;21.60;;;;;;;7.89;82.17;93109.88;513902;28;2318;-69
2023/11/24 00:02:49;;;;;;;30.40;21.20;;;;;;;7.91;82.24;93106.56;512999;28;3126;-69
2023/11/24 00:03:04;;;;;;;27.97;20.67;;;;;;;7.91;81.90;93099.06;513694;28;1779;-69
2023/11/24 00:03:20;;;;;;;27.77;20.48;;;;;;;7.92;82.07;93106.06;512641;28;3517;-69
2023/11/24 00:03:36;;;;;;;28.83;20.10;;;;;;;7.93;82.15;93099.28;512580;28;1859;-69
2023/11/24 00:03:51;;;;;;;28.83;19.83;;;;;;;7.94;81.87;93106.25;511923;28;2100;-69
2023/11/24 00:04:06;;;;;;;28.73;20.00;;;;;;;7.94;nan;93100.75;512301;28;1894;-69
2023/11/24 00:04:22;;;;;;;26.80;19.93;;;;;;;7.96;81.99;93109.19;512498;28;3080;-68
2023/11/24 00:04:37;;;;;;;25.20;19.60;;;;;;;7.96;81.95;93106.44;513406;28;1926;-69
2023/11/24 00:04:53;;;;;;;25.83;19.48;;;;;;;7.97;81.80;93105.16;513496;28;1960;-69
2023/11/24 00:05:09;;;;;;;27.50;19.70;;;;;;;7.98;81.96;93103.16;513670;28;1796;-69
2023/11/24 00:05:25;;;;;;;28.55;20.30;;;;;;;7.99;81.97;93104.63;513347;28;3274;-69
2023/11/24 00:05:40;;;;;;;29.37;21.23;;;;;;;7.98;82.15;93098.41;512533;28;1897;-69
2023/11/24 00:05:56;;;;;;;29.08;21.33;;;;;;;7.98;81.89;93097.66;511058;28;3216;-69
2023/11/24 00:06:12;;;;;;;28.37;20.60;;;;;;;7.98;81.76;93108.66;513167;28;2266;-69
2023/11/24 00:06:28;;;;;;;27.90;20.15;;;;;;;7.99;81.63;93099.13;513722;28;2024;-69
2023/11/24 00:06:44;;;;;;;27.02;19.77;;;;;;;7.98;81.86;93101.16;513651;28;2104;-69
2023/11/24 00:06:59;;;;;;;27.50;20.83;;;;;;;7.98;81.62;93105.91;512505;28;3311;-70
2023/11/24 00:07:17;;;;;;;29.53;22.00;;;;;;;7.98;nan;93098.41;511156;28;3172;-69
2023/11/24 00:07:36;;;;;;;29.30;21.10;;;;;;;7.98;81.89;93097.66;513891;28;2342;-69
2023/11/24 00:07:52;;;;;;;26.83;20.30;;;;;;;7.97;81.89;93096.91;513051;28;2106;-69
2023/11/24 00:08:08;;;;;;;27.58;20.85;;;;;;;7.95;81.58;93098.75;513407;28;1981;-70
2023/11/24 00:08:25;;;;;;;28.13;21.30;;;;;;;7.90;81.46;93096.88;513874;28;2625;-69
2023/11/24 00:08:40;;;;;;;26.70;20.15;;;;;;;7.83;81.52;93097.56;513337;28;2013;-69
2023/11/24 00:08:56;;;;;;;25.38;19.25;;;;;;;7.81;81.75;93100.09;511263;28;4218;-69
2023/11/24 00:09:11;;;;;;;25.67;19.30;;;;;;;7.70;81.56;93083.91;511330;28;3199;-69
2023/11/24 00:09:30;;;;;;;26.35;18.70;;;;;;;7.80;81.55;93099.38;513075;28;3138;-69
2023/11/24 00:09:46;;;;;;;27.60;18.13;;;;;;;7.81;81.58;93098.09;512107;28;3244;-69
2023/11/24 00:10:04;;;;;;;24.67;17.63;;;;;;;7.82;81.61;93101.59;512566;28;3220;-69
2023/11/24 00:10:19;;;;;;;25.80;18.65;;;;;;;7.82;81.52;93096.09;513098;28;2129;-69
2023/11/24 00:10:36;;;;;;;25.80;18.55;;;;;;;7.82;81.54;93098.84;513400;28;1938;-69
2023/11/24 00:10:51;;;;;;;23.88;17.83;;;;;;;7.84;81.44;93096.28;512045;28;3453;-69
2023/11/24 00:11:07;;;;;;;24.70;18.20;;;;;;;7.83;81.40;93101.03;513574;28;1836;-69
2023/11/24 00:11:24;;;;;;;24.00;18.10;;;;;;;7.85;81.42;93092.25;513617;28;4243;-69
2023/11/24 00:11:42;;;;;;;23.35;18.02;;;;;;;7.86;81.32;93096.47;512938;28;1771;-69
2023/11/24 00:11:58;;;;;;;23.98;18.10;;;;;;;7.85;81.37;93097.75;513355;28;1936;-69
2023/11/24 00:12:14;;;;;;;23.50;17.33;;;;;;;7.88;81.43;93094.69;512635;28;3301;-69
2023/11/24 00:12:30;;;;;;;23.37;17.33;;;;;;;7.86;81.21;93091.69;510392;28;2178;-69
2023/11/24 00:12:46;;;;;;;24.52;18.23;;;;;;;7.89;81.30;93096.13;510615;28;3671;-69
2023/11/24 00:13:01;;;;;;;24.92;18.75;;;;;;;7.90;81.25;93099.63;513475;28;1989;-69
2023/11/24 00:13:18;;;;;;;24.00;18.85;;;;;;;7.91;80.85;93095.59;512182;28;2062;-69
2023/11/24 00:13:34;;;;;;;22.98;18.48;;;;;;;7.90;80.95;93094.88;513097;28;2025;-69
2023/11/24 00:13:49;;;;;;;23.27;17.55;;;;;;;7.92;81.10;93089.56;513364;28;1914;-69
2023/11/24 00:14:05;;;;;;;24.90;18.20;;;;;;;7.93;80.99;93093.03;512731;28;1929;-69
2023/11/24 00:14:21;;;;;;;27.27;19.27;;;;;;;7.92;81.03;93094.31;513476;28;3389;-70
2023/11/24 00:14:36;;;;;;;27.95;19.95;;;;;;;7.93;81.09;93098.53;512572;28;3242;-70
2023/11/24 00:14:52;;;;;;;27.13;20.43;;;;;;;7.92;80.96;93097.06;514750;28;1909;-70
2023/11/24 00:15:09;;;;;;;28.20;21.40;;;;;;;7.93;81.00;93093.03;512920;28;1839;-69
2023/11/24 00:15:24;;;;;;;29.83;22.85;;;;;;;7.93;80.88;93091.03;512262;28;3455;-69
2023/11/24 00:15:42;;;;;;;26.05;21.58;;;;;;;7.94;80.76;93089.03;512784;28;3145;-70
2023/11/24 00:15:58;;;;;;;27.52;21.27;;;;;;;7.94;80.87;93084.25;514200;28;2024;-70
2023/11/24 00:16:15;;;;;;;27.88;20.60;;;;;;;7.95;80.70;93085.00;512528;28;3544;-69
2023/11/24 00:16:30;;;;;;;23.60;19.38;;;;;;;7.95;80.50;93093.25;513043;28;2001;-71
2023/11/24 00:16:49;;;;;;;23.50;20.17;;;;;;;7.96;80.51;93091.97;512974;28;3218;-70
2023/11/24 00:17:04;;;;;;;24.98;19.88;;;;;;;7.95;80.45;93087.75;512035;28;3076;-70
2023/11/24 00:17:21;;;;;;;26.13;19.90;;;;;;;7.95;80.59;93088.47;513801;28;1942;-69
2023/11/24 00:17:39;;;;;;;25.50;21.02;;;;;;;7.63;80.59;93064.09;513602;28;2215;-69
2023/11/24 00:17:54;;;;;;;26.65;21.50;;;;;;;7.65;80.63;93088.25;513955;28;2074;-70
2023/11/24 00:18:09;;;;;;;27.43;21.00;;;;;;;7.61;80.96;93090.63;513049;28;3175;-70
2023/11/24 00:18:26;;;;;;;27.05;21.02;;;;;;;7.23;81.45;93029.19;513648;28;1851;-70
2023/11/24 00:18:42;;;;;;;27.65;21.90;;;;;;;7.56;81.57;93086.00;513442;28;2052;-70
2023/11/24 00:18:57;;;;;;;28.60;23.27;;;;;;;7.47;81.71;93089.25;512237;28;3286;-70
2023/11/24 00:19:15;;;;;;;32.60;24.07;;;;;;;7.46;81.71;93088.50;513321;28;3374;-70
2023/11/24 00:19:31;;;;;;;34.42;23.40;;;;;;;7.51;81.95;93092.38;512134;28;3176;-70
2023/11/24 00:19:47;;;;;;;31.17;23.38;;;;;;;7.53;81.72;93085.06;513221;28;2115;-70
2023/11/24 00:20:04;;;;;;;28.42;23.13;;;;;;;7.56;nan;93083.25;512797;28;3241;-70
2023/11/24 00:20:20;;;;;;;27.70;23.20;;;;;;;7.57;81.87;93090.97;513992;28;2001;-70
2023/11/24 00:20:35;;;;;;;27.90;22.70;;;;;;;7.60;81.82;93089.88;513426;28;1259;-71
2023/11/24 00:20:50;;;;;;;27.37;21.50;;;;;;;7.62;81.75;93086.59;513090;28;2983;-70
2023/11/24 00:21:06;;;;;;;27.07;21.17;;;;;;;7.64;81.51;93087.53;513307;28;4223;-70
2023/11/24 00:21:22;;;;;;;28.57;21.17;;;;;;;7.66;81.56;93076.00;513323;28;1958;-70
2023/11/24 00:21:37;;;;;;;25.90;20.75;;;;;;;7.68;81.57;93083.72;511986;28;3261;-70
2023/11/24 00:21:53;;;;;;;23.67;20.50;;;;;;;7.68;81.51;93084.44;511379;28;3022;-69
2023/11/24 00:22:08;;;;;;;24.77;20.65;;;;;;;7.71;81.52;93085.38;513557;28;1957;-70
2023/11/24 00:22:24;;;;;;;25.53;20.97;;;;;;;7.74;81.38;93079.53;512601;28;1933;-70
2023/11/24 00:22:39;;;;;;;25.95;21.40;;;;;;;7.74;81.46;93076.03;513295;28;3161;-70
2023/11/24 00:22:55;;;;;;;26.63;21.33;;;;;;;7.75;81.38;93083.03;513372;28;3284;-70
2023/11/24 00:23:11;;;;;;;26.27;20.85;;;;;;;7.77;81.38;93077.72;511993;28;3122;-70
2023/11/24 00:23:26;;;;;;;25.73;21.00;;;;;;;7.78;81.49;93073.69;513597;28;1882;-69
2023/11/24 00:23:41;;;;;;;27.97;22.00;;;;;;;7.79;81.30;93069.69;513616;28;1974;-70
2023/11/24 00:23:57;;;;;;;28.80;22.80;;;;;;;7.79;81.30;93075.19;512039;28;2331;-70
2023/11/24 00:24:14;;;;;;;29.73;22.25;;;;;;;7.79;81.25;93075.91;513521;28;2040;-70
2023/11/24 00:24:29;;;;;;;31.83;23.50;;;;;;;7.80;81.57;93077.38;512966;28;3389;-70
2023/11/24 00:24:45;;;;;;;30.53;23.17;;;;;;;7.80;81.21;93071.88;513075;28;2331;-70
2023/11/24 00:25:01;;;;;;;27.52;20.63;;;;;;;7.81;81.21;93076.13;513892;28;3408;-70
2023/11/24 00:25:17;;;;;;;25.52;20.63;;;;;;;7.76;81.01;93066.00;512948;28;2001;-70
2023/11/24 00:25:33;;;;;;;26.58;21.02;;;;;;;7.83;81.01;93075.56;511940;28;1907;-70
2023/11/24 00:25:49;;;;;;;25.13;20.25;;;;;;;7.84;81.34;93072.28;509868;28;2421;-70
2023/11/24 00:26:07;;;;;;;24.70;19.98;;;;;;;7.84;80.95;93082.53;510431;28;3479;-70
2023/11/24 00:26:26;;;;;;;27.42;20.63;;;;;;;7.82;80.93;93076.84;512038;28;2063;-70
2023/11/24 00:26:41;;;;;;;23.63;18.90;;;;;;;7.79;81.04;93080.66;510722;28;1890;-70
2023/11/24 00:26:58;;;;;;;21.93;18.10;;;;;;;7.75;81.04;93081.03;510750;28;3344;-70
2023/11/24 00:27:13;;;;;;;22.88;18.55;;;;;;;7.74;81.06;93076.78;509145;28;1741;-70
2023/11/24 00:27:29;;;;;;;23.73;18.90;;;;;;;7.75;81.12;93075.53;512715;28;3129;-70
2023/11/24 00:27:45;;;;;;;22.85;18.05;;;;;;;7.75;81.07;93072.03;512825;28;3444;-70
2023/11/24 00:28:00;;;;;;;23.37;18.13;;;;;;;7.73;81.23;93078.09;513038;28;3211;-70
2023/11/24 00:28:18;;;;;;;23.52;18.75;;;;;;;7.75;81.29;93074.78;511143;28;3115;-71
2023/11/24 00:28:36;;;;;;;24.13;19.45;;;;;;;7.68;81.21;93072.72;511947;28;4111;-70
2023/11/24 00:28:55;;;;;;;23.88;19.33;;;;;;;7.69;81.25;93068.72;514194;28;1974;-70
2023/11/24 00:29:11;;;;;;;22.75;18.88;;;;;;;7.70;81.22;93072.91;514296;28;2081;-70
2023/11/24 00:29:26;;;;;;;19.45;16.27;;;;;;;7.71;81.23;93066.16;512129;28;3490;-71
2023/11/24 00:29:42;;;;;;;17.97;14.67;;;;;;;7.70;81.06;93068.16;512931;28;3261;-70
2023/11/24 00:29:57;;;;;;;18.80;13.97;;;;;;;7.70;81.25;93065.41;513193;28;1914;-70
2023/11/24 00:30:13;;;;;;;17.95;13.45;;;;;;;7.72;81.07;93064.88;512731;28;3642;-70
2023/11/24 00:30:28;;;;;;;17.60;14.03;;;;;;;7.73;81.23;93071.84;514141;28;2012;-70
2023/11/24 00:30:44;;;;;;;16.25;13.93;;;;;;;7.75;81.22;93074.78;512617;28;1183;-70
2023/11/24 00:31:03;;;;;;;15.60;13.85;;;;;;;7.75;81.06;93072.03;513200;28;2055;-70
2023/11/24 00:31:18;;;;;;;17.10;14.63;;;;;;;7.74;81.38;93065.81;513967;28;1922;-70
2023/11/24 00:31:34;;;;;;;19.30;14.37;;;;;;;7.77;81.18;93064.00;513648;28;2186;-70
2023/11/24 00:31:49;;;;;;;20.10;14.40;;;;;;;7.79;81.30;93072.44;511656;28;3510;-70
2023/11/24 00:32:06;;;;;;;18.63;14.60;;;;;;;7.79;81.31;93064.94;512488;28;1950;-70
2023/11/24 00:32:22;;;;;;;18.15;14.52;;;;;;;7.80;81.10;93069.13;513215;28;3618;-71
2023/11/24 00:32:39;;;;;;;18.15;14.32;;;;;;;7.82;81.29;93069.31;512412;28;1974;-70
2023/11/24 00:32:55;;;;;;;17.35;14.07;;;;;;;7.83;81.15;93070.81;513733;28;2197;-70
2023/11/24 00:33:11;;;;;;;18.30;14.33;;;;;;;7.82;81.20;93068.63;511118;28;3271;-70
2023/11/24 00:33:28;;;;;;;17.88;14.35;;;;;;;7.83;81.30;93065.31;513630;28;3129;-70
2023/11/24 00:33:43;;;;;;;16.63;13.73;;;;;;;7.84;81.37;93066.06;513199;28;2279;-70
2023/11/24 00:34:00;;;;;;;17.83;13.82;;;;;;;7.85;81.34;93065.50;512998;28;2009;-70
2023/11/24 00:34:16;;;;;;;17.25;13.10;;;;;;;7.87;81.47;93065.69;512413;28;2572;-70
2023/11/24 00:34:31;;;;;;;15.33;11.87;;;;;;;7.88;81.42;93063.69;513921;28;1844;-70
2023/11/24 00:34:47;;;;;;;14.25;11.10;;;;;;;7.89;81.36;93065.16;511568;28;3066;-70
2023/11/24 00:35:06;;;;;;;13.20;10.97;;;;;;;7.89;81.21;93062.41;513079;28;2097;-70
2023/11/24 00:35:21;;;;;;;13.88;11.50;;;;;;;7.89;81.44;93067.91;512961;28;3056;-70
2023/11/24 00:35:37;;;;;;;13.95;12.00;;;;;;;7.90;81.40;93072.13;511592;28;1823;-70
2023/11/24 00:35:55;;;;;;;14.77;12.60;;;;;;;7.88;81.59;93067.19;512098;28;4256;-70
2023/11/24 00:36:10;;;;;;;15.63;13.27;;;;;;;7.88;81.52;93066.44;512296;28;3263;-70
2023/11/24 00:36:27;;;;;;;16.10;13.95;;;;;;;7.72;81.17;93059.38;513326;28;3150;-70
2023/11/24 00:36:42;;;;;;;15.88;14.07;;;;;;;7.62;81.38;93059.13;511405;28;3367;-70
2023/11/24 00:36:58;;;;;;;15.95;14.25;;;;;;;7.45;81.36;93064.31;513131;28;1911;-70
2023/11/24 00:37:14;;;;;;;15.73;13.60;;;;;;;7.48;81.53;93069.47;511341;28;1926;-70
2023/11/24 00:37:29;;;;;;;15.30;12.53;;;;;;;7.51;81.64;93062.88;513150;28;1229;-70
2023/11/24 00:37:44;;;;;;;13.73;11.40;;;;;;;7.49;81.54;93065.44;512420;28;2342;-70
2023/11/24 00:38:00;;;;;;;14.10;11.32;;;;;;;7.53;81.53;93057.59;513603;28;3158;-70
2023/11/24 00:38:15;;;;;;;14.37;12.00;;;;;;;7.52;81.47;93058.13;512387;28;3163;-70
2023/11/24 00:38:31;;;;;;;12.93;11.57;;;;;;;7.49;81.37;93067.47;512330;28;1937;-70
2023/11/24 00:38:49;;;;;;;12.50;11.17;;;;;;;7.49;81.50;93062.69;511430;28;2151;-69
2023/11/24 00:39:05;;;;;;;12.95;10.93;;;;;;;7.40;81.46;93037.72;512467;28;3274;-71
2023/11/24 00:39:20;;;;;;;12.87;10.37;;;;;;;7.54;81.57;93056.31;512474;28;1839;-69
2023/11/24 00:39:36;;;;;;;11.48;9.50;;;;;;;7.57;81.38;93054.50;512456;28;1784;-71
2023/11/24 00:39:52;;;;;;;10.15;8.52;;;;;;;7.60;81.26;93061.69;511730;28;3230;-70
2023/11/24 00:40:13;;;;;;;9.77;8.03;;;;;;;7.62;81.07;93053.63;513544;28;2013;-70
2023/11/24 00:40:29;;;;;;;9.80;8.15;;;;;;;7.63;80.89;93061.34;512788;28;1950;-70
2023/11/24 00:40:44;;;;;;;9.77;7.97;;;;;;;7.67;80.74;93063.03;512809;28;4146;-70
2023/11/24 00:41:00;;;;;;;10.20;8.13;;;;;;;7.69;80.74;93060.47;513368;28;1931;-70
2023/11/24 00:41:16;;;;;;;9.95;7.93;;;;;;;7.57;80.94;93040.78;513202;28;3770;-70
2023/11/24 00:41:33;;;;;;;10.07;8.15;;;;;;;7.73;80.58;93055.34;513912;28;1129;-70
2023/11/24 00:41:48;;;;;;;9.55;8.07;;;;;;;7.73;80.68;93058.09;511585;28;3146;-71
2023/11/24 00:42:04;;;;;;;9.67;8.00;;;;;;;7.64;80.68;93051.09;510840;28;3320;-69
2023/11/24 00:42:21;;;;;;;9.35;7.75;;;;;;;7.58;80.91;93056.72;511621;28;3191;-70
2023/11/24 00:42:36;;;;;;;9.55;8.20;;;;;;;7.60;80.92;93051.41;511437;28;1848;-70
2023/11/24 00:42:52;;;;;;;11.33;8.50;;;;;;;7.61;80.96;93046.66;511594;28;2409;-70
2023/11/24 00:43:10;;;;;;;11.20;7.93;;;;;;;7.61;80.79;93052.16;513320;28;1734;-70
2023/11/24 00:43:26;;;;;;;11.20;7.60;;;;;;;7.59;80.75;93049.22;512492;28;2385;-70
2023/11/24 00:43:42;;;;;;;11.55;8.23;;;;;;;7.58;80.92;93045.72;514263;28;1773;-70
2023/11/24 00:43:57;;;;;;;11.30;9.35;;;;;;;7.57;80.89;93049.75;514060;28;1902;-70
2023/11/24 00:44:13;;;;;;;11.82;9.25;;;;;;;7.56;80.95;93045.53;512334;28;3932;-70
2023/11/24 00:44:28;;;;;;;11.07;8.73;;;;;;;7.54;81.16;93045.34;513078;28;2118;-70
2023/11/24 00:44:44;;;;;;;11.17;9.03;;;;;;;7.53;81.42;93049.38;512887;28;3739;-70
2023/11/24 00:45:00;;;;;;;9.88;8.40;;;;;;;7.55;81.55;93046.06;512277;28;2123;-70
2023/11/24 00:45:16;;;;;;;9.75;8.23;;;;;;;7.56;81.40;93045.53;512642;28;4293;-69
2023/11/24 00:45:32;;;;;;;11.35;8.38;;;;;;;7.58;81.24;93042.22;512438;28;3316;-70
2023/11/24 00:45:48;;;;;;;9.97;7.43;;;;;;;7.60;81.53;93039.72;511957;28;3359;-70
2023/11/24 00:46:06;;;;;;;9.07;7.75;;;;;;;7.63;81.36;93041.34;513169;28;2065;-70
2023/11/24 00:46:21;;;;;;;10.63;8.20;;;;;;;7.64;81.54;93040.81;513023;28;2002;-70
2023/11/24 00:46:37;;;;;;;11.80;8.00;;;;;;;7.67;81.56;93046.53;510674;28;2028;-70
2023/11/24 00:46:52;;;;;;;9.65;7.80;;;;;;;7.68;81.54;93042.50;513425;28;1921;-70
2023/11/24 00:47:08;;;;;;;8.63;7.67;;;;;;;7.70;81.60;93046.19;511619;28;2241;-70
2023/11/24 00:47:25;;;;;;;9.40;7.60;;;;;;;7.69;81.63;93043.97;513738;28;1972;-70
2023/11/24 00:47:41;;;;;;;9.50;7.68;;;;;;;7.68;81.92;93039.75;513554;28;2396;-70
2023/11/24 00:47:56;;;;;;;8.90;7.20;;;;;;;7.68;81.87;93042.50;513871;28;2136;-69
2023/11/24 00:48:12;;;;;;;8.07;7.10;;;;;;;7.69;81.86;93043.97;512709;28;2478;-70
2023/11/24 00:48:28;;;;;;;9.18;7.78;;;;;;;7.70;81.82;93039.94;513670;28;1820;-70
2023/11/24 00:48:43;;;;;;;9.38;8.23;;;;;;;7.71;82.18;93039.38;512761;28;2105;-70
2023/11/24 00:48:59;;;;;;;9.13;8.07;;;;;;;7.72;82.17;93040.13;514717;28;1787;-70
2023/11/24 00:49:14;;;;;;;11.32;8.35;;;;;;;7.72;82.06;93034.63;512303;28;1946;-70
2023/11/24 00:49:30;;;;;;;11.93;8.60;;;;;;;7.66;82.33;93040.28;513153;28;1981;-70
2023/11/24 00:49:47;;;;;;;13.07;9.98;;;;;;;7.64;82.33;93037.34;512985;28;2098;-70
2023/11/24 00:50:05;;;;;;;15.02;11.45;;;;;;;7.63;82.33;93035.88;512423;28;1998;-70
2023/11/24 00:50:21;;;;;;;17.30;13.52;;;;;;;7.61;82.49;93036.41;514450;28;1896;-70
2023/11/24 00:50:36;;;;;;;16.75;13.77;;;;;;;7.62;82.74;93035.13;512954;28;2400;-70
2023/11/24 00:50:52;;;;;;;13.60;11.67;;;;;;;7.64;82.45;93038.06;513418;28;2010;-70
2023/11/24 00:51:07;;;;;;;13.90;10.80;;;;;;;7.67;82.45;93032.78;513125;28;3937;-70
2023/11/24 00:51:24;;;;;;;14.43;10.83;;;;;;;7.70;82.66;93042.69;511833;28;3203;-70
2023/11/24 00:51:39;;;;;;;13.10;10.48;;;;;;;7.71;82.34;93033.91;512960;28;2029;-70
2023/11/24 00:51:56;;;;;;;12.43;9.83;;;;;;;7.73;82.41;93045.09;513458;28;2050;-70
2023/11/24 00:52:12;;;;;;;14.50;10.15;;;;;;;7.75;82.41;93036.31;512142;28;2054;-70
2023/11/24 00:52:27;;;;;;;14.88;10.73;;;;;;;7.77;82.49;93036.50;512731;28;1939;-70
2023/11/24 00:52:43;;;;;;;12.83;10.33;;;;;;;7.78;82.32;93033.22;513315;28;4137;-70
2023/11/24 00:53:01;;;;;;;13.77;9.52;;;;;;;7.79;82.56;93034.69;512486;28;3882;-70
2023/11/24 00:53:16;;;;;;;13.32;10.18;;;;;;;7.80;82.43;93027.91;512361;28;3197;-70
2023/11/24 00:53:32;;;;;;;12.90;10.93;;;;;;;7.83;82.32;93037.09;514480;28;1921;-70
2023/11/24 00:53:47;;;;;;;15.40;10.95;;;;;;;7.84;82.30;93033.78;511945;28;2000;-70
2023/11/24 00:54:03;;;;;;;15.37;11.53;;;;;;;7.84;82.26;93033.78;513920;28;1950;-70
2023/11/24 00:54:18;;;;;;;13.27;11.80;;;;;;;7.80;82.20;93030.66;513420;28;1962;-70
2023/11/24 00:54:34;;;;;;;13.93;11.37;;;;;;;7.84;82.30;93031.03;513300;28;2046;-70
2023/11/24 00:54:49;;;;;;;14.35;12.02;;;;;;;7.85;82.14;93034.53;512829;28;1005;-70
2023/11/24 00:55:05;;;;;;;14.20;12.40;;;;;;;7.84;82.26;93028.28;511496;28;2115;-70
2023/11/24 00:55:22;;;;;;;16.88;12.27;;;;;;;7.87;82.26;93029.97;513300;28;1926;-70
2023/11/24 00:55:37;;;;;;;17.70;12.57;;;;;;;7.88;82.26;93034.22;514049;28;1903;-70
2023/11/24 00:55:53;;;;;;;15.82;12.73;;;;;;;7.90;81.92;93030.91;513687;28;1878;-70
2023/11/24 00:56:08;;;;;;;16.27;12.57;;;;;;;7.89;82.06;93035.66;513426;28;1946;-70
2023/11/24 00:56:24;;;;;;;16.30;12.13;;;;;;;7.90;81.93;93028.16;513129;28;2298;-70
2023/11/24 00:56:39;;;;;;;17.23;13.50;;;;;;;7.91;82.00;93033.09;512582;28;2091;-70
2023/11/24 00:56:55;;;;;;;17.63;14.67;;;;;;;7.93;81.98;93027.81;513533;28;1982;-70
2023/11/24 00:57:10;;;;;;;19.73;15.53;;;;;;;7.95;82.12;93030.03;511824;28;3086;-70
2023/11/24 00:57:25;;;;;;;20.92;16.27;;;;;;;7.95;82.17;93030.75;513713;28;1743;-70
2023/11/24 00:57:41;;;;;;;19.80;15.90;;;;;;;7.97;82.19;93030.22;513143;28;3472;-70
2023/11/24 00:57:57;;;;;;;20.67;15.55;;;;;;;7.97;82.09;93024.72;513077;28;3663;-70
2023/11/24 00:58:13;;;;;;;18.15;13.75;;;;;;;7.98;82.01;93021.44;511232;28;3146;-70
2023/11/24 00:58:29;;;;;;;15.35;11.55;;;;;;;7.98;81.96;93023.44;509058;28;3190;-70
2023/11/24 00:58:44;;;;;;;15.30;11.30;;;;;;;7.97;81.69;93025.44;509043;28;3022;-70
2023/11/24 00:58:59;;;;;;;14.82;11.25;;;;;;;7.98;81.71;93026.91;511838;28;3430;-70
2023/11/24 00:59:16;;;;;;;12.53;10.10;;;;;;;7.98;81.43;93031.69;510720;28;3077;-70
2023/11/24 00:59:31;;;;;;;10.23;8.25;;;;;;;7.96;81.56;93023.97;512616;28;1907;-70
2023/11/24 00:59:47;;;;;;;9.30;7.40;;;;;;;7.97;81.54;93021.97;511706;28;1910;-69
2023/11/24 01:00:06;;;;;;;10.57;7.93;;;;;;;7.96;81.20;93026.72;511439;28;1876;-70
2023/11/24 01:00:23;;;;;;;12.48;8.43;;;;;;;7.93;81.03;93021.56;513090;28;2704;-70
2023/11/24 01:00:38;;;;;;;10.88;7.78;;;;;;;7.73;81.00;92992.16;512028;28;2554;-70
2023/11/24 01:00:54;;;;;;;8.23;7.00;;;;;;;7.93;81.11;93022.31;513203;28;1839;-71
2023/11/24 01:01:11;;;;;;;7.63;6.40;;;;;;;7.94;80.89;93025.78;512194;28;2470;-71
2023/11/24 01:01:26;;;;;;;8.50;6.40;;;;;;;7.94;80.66;93023.03;513210;28;1934;-71
2023/11/24 01:01:42;;;;;;;7.10;5.97;;;;;;;7.93;80.92;93024.31;511830;28;1998;-71
2023/11/24 01:01:57;;;;;;;6.03;5.43;;;;;;;7.93;80.50;93021.56;514386;28;1124;-70
2023/11/24 01:02:13;;;;;;;6.87;5.60;;;;;;;7.93;80.60;93022.31;512744;28;2080;-70
2023/11/24 01:02:28;;;;;;;7.30;5.80;;;;;;;7.92;80.37;93018.09;513146;28;1914;-70
2023/11/24 01:02:44;;;;;;;7.83;5.70;;;;;;;7.92;80.43;93015.34;513269;28;3431;-70
2023/11/24 01:03:00;;;;;;;7.78;5.60;;;;;;;7.89;80.29;93016.41;511859;28;2533;-70
2023/11/24 01:03:15;;;;;;;6.97;5.67;;;;;;;7.88;80.72;93019.72;511550;28;1824;-70
2023/11/24 01:03:31;;;;;;;7.32;5.95;;;;;;;7.89;80.58;93021.19;512835;28;1871;-70
2023/11/24 01:03:46;;;;;;;6.90;5.80;;;;;;;7.89;80.74;93016.41;512697;28;3134;-70
2023/11/24 01:04:02;;;;;;;7.05;5.80;;;;;;;7.89;80.70;93013.69;513151;28;2430;-70
2023/11/24 01:04:17;;;;;;;8.23;6.10;;;;;;;7.90;80.76;93009.66;513176;28;2370;-69
2023/11/24 01:04:33;;;;;;;7.57;6.03;;;;;;;7.92;80.69;93009.13;513139;28;3310;-70
2023/11/24 01:04:48;;;;;;;7.80;6.00;;;;;;;7.93;80.90;93010.56;512725;28;1942;-70
2023/11/24 01:05:04;;;;;;;9.05;6.25;;;;;;;7.93;80.68;93010.56;510736;28;3475;-70
2023/11/24 01:05:20;;;;;;;8.60;6.50;;;;;;;7.93;80.94;93007.81;511904;28;2056;-70
2023/11/24 01:05:36;;;;;;;7.93;6.40;;;;;;;7.64;80.77;92971.41;513788;28;2121;-70
2023/11/24 01:05:53;;;;;;;6.82;5.95;;;;;;;7.93;81.16;93013.31;512924;28;1967;-70
2023/11/24 01:06:09;;;;;;;7.32;6.22;;;;;;;7.93;81.05;93008.56;513479;28;1970;-70
2023/11/24 01:06:25;;;;;;;8.00;6.27;;;;;;;7.68;81.00;92971.06;512917;28;2064;-70
2023/11/24 01:06:40;;;;;;;7.38;6.13;;;;;;;7.91;81.05;93013.13;512969;28;1855;-70
2023/11/24 01:06:56;;;;;;;8.02;5.80;;;;;;;7.89;81.00;93010.19;512574;28;2576;-69
2023/11/24 01:07:11;;;;;;;7.77;5.93;;;;;;;7.89;81.06;93010.94;513260;28;3607;-70
2023/11/24 01:07:27;;;;;;;6.53;5.80;;;;;;;7.88;80.94;93008.72;512677;28;2760;-70
2023/11/24 01:07:42;;;;;;;5.90;5.13;;;;;;;7.88;81.22;93005.97;512617;28;3207;-70
2023/11/24 01:08:01;;;;;;;6.33;5.30;;;;;;;7.85;81.20;93007.06;512143;28;3267;-70
2023/11/24 01:08:16;;;;;;;6.47;5.43;;;;;;;7.84;81.07;93008.34;513522;28;2038;-70
2023/11/24 01:08:32;;;;;;;6.75;5.60;;;;;;;7.85;81.39;93001.56;513509;28;4057;-70
2023/11/24 01:08:47;;;;;;;6.57;5.53;;;;;;;7.86;81.35;93003.03;512842;28;1526;-70
2023/11/24 01:09:04;;;;;;;6.07;5.15;;;;;;;7.87;81.23;93010.00;512700;28;2168;-69
2023/11/24 01:09:20;;;;;;;6.50;4.88;;;;;;;7.84;81.25;93003.56;513201;28;1751;-70
2023/11/24 01:09:35;;;;;;;6.83;4.87;;;;;;;7.87;81.23;92999.00;512762;28;3780;-70
2023/11/24 01:09:51;;;;;;;6.15;5.20;;;;;;;7.87;81.35;93002.50;512727;28;1922;-70
2023/11/24 01:10:11;;;;;;;6.47;5.65;;;;;;;7.87;81.46;92999.00;514618;28;1794;-70
2023/11/24 01:10:27;;;;;;;6.88;5.72;;;;;;;7.88;81.32;92994.97;512329;28;3236;-70
2023/11/24 01:10:43;;;;;;;6.75;5.40;;;;;;;7.88;81.27;92994.97;510745;28;2253;-70
2023/11/24 01:11:01;;;;;;;7.28;5.38;;;;;;;7.88;81.54;92997.72;511884;28;3245;-70
2023/11/24 01:11:18;;;;;;;6.80;5.35;;;;;;;7.87;81.63;92991.50;510691;28;3725;-70
2023/11/24 01:11:33;;;;;;;6.43;5.15;;;;;;;7.89;81.38;93001.94;513054;28;3369;-70
2023/11/24 01:11:50;;;;;;;7.20;5.20;;;;;;;7.89;81.68;92997.19;512963;28;4007;-70
2023/11/24 01:12:05;;;;;;;7.93;5.50;;;;;;;7.90;81.39;92995.19;512625;28;1597;-70
2023/11/24 01:12:20;;;;;;;6.47;5.17;;;;;;;7.92;81.75;92998.13;511730;28;3924;-69
2023/11/24 01:12:36;;;;;;;6.85;5.25;;;;;;;7.93;81.52;93002.31;513724;28;2251;-71
2023/11/24 01:12:51;;;;;;;10.27;5.70;;;;;;;7.94;81.74;92995.56;511550;28;1902;-70
2023/11/24 01:13:07;;;;;;;9.07;5.88;;;;;;;7.89;81.71;92991.69;510719;28;1780;-70
2023/11/24 01:13:23;;;;;;;6.83;5.63;;;;;;;7.96;81.78;92996.50;511262;28;3587;-70
2023/11/24 01:13:39;;;;;;;6.88;5.50;;;;;;;7.98;81.96;93001.44;510815;28;2010;-70
2023/11/24 01:13:55;;;;;;;7.78;5.65;;;;;;;7.98;81.55;92990.44;511714;28;3290;-70
2023/11/24 01:14:10;;;;;;;7.40;5.57;;;;;;;8.00;82.01;92991.38;509040;28;3067;-70
2023/11/24 01:14:26;;;;;;;6.47;5.30;;;;;;;8.01;81.68;92992.13;510852;28;3490;-70
2023/11/24 01:14:41;;;;;;;6.70;5.33;;;;;;;8.03;82.10;92990.31;512207;28;2048;-69
2023/11/24 01:14:56;;;;;;;7.33;5.63;;;;;;;8.04;81.84;92991.00;513558;28;3203;-70
2023/11/24 01:15:12;;;;;;;7.25;5.93;;;;;;;8.04;82.16;92988.25;511502;28;3130;-70
2023/11/24 01:15:28;;;;;;;6.88;5.93;;;;;;;8.05;82.12;92992.50;513991;28;2068;-70
2023/11/24 01:15:43;;;;;;;7.53;6.27;;;;;;;7.89;82.06;92966.22;512626;28;3094;-70
2023/11/24 01:15:59;;;;;;;7.32;6.20;;;;;;;8.06;81.97;92996.69;513871;28;1876;-70
2023/11/24 01:16:14;;;;;;;7.30;6.00;;;;;;;8.06;82.23;92989.19;512603;28;3959;-70
2023/11/24 01:16:30;;;;;;;6.50;5.57;;;;;;;8.05;81.98;92990.50;513875;28;1954;-70
2023/11/24 01:16:45;;;;;;;5.93;5.33;;;;;;;8.05;82.05;92990.50;512934;28;1855;-70
2023/11/24 01:17:01;;;;;;;6.23;5.40;;;;;;;8.05;82.26;92987.75;513944;28;2035;-70